sensor_id;sensor_type;location;lat;lon;timestamp;pressure;altitude;pressure_sealevel;temperature;humidity
71805;BME280;59654;52.216;5.616;2022-12-13T00:00:21;101142.38;;;-6.09;86.57
71805;BME280;59654;52.216;5.616;2022-12-13T00:00:52;101147.56;;;-6.09;86.75
71805;BME280;59654;52.216;5.616;2022-12-13T00:01:25;101145.00;;;-6.07;85.87
71805;BME280;59654;52.216;5.616;2022-12-13T00:01:57;101149.34;;;-6.06;85.97
71805;BME280;59654;52.216;5.616;2022-12-13T00:02:28;101145.03;;;-6.06;85.88
71805;BME280;59654;52.216;5.616;2022-12-13T00:02:59;101142.44;;;-6.06;86.18
71805;BME280;59654;52.216;5.616;2022-12-13T00:03:29;101145.88;;;-6.07;86.79
71805;BME280;59654;52.216;5.616;2022-12-13T00:04:03;101142.38;;;-6.09;85.56
71805;BME280;59654;52.216;5.616;2022-12-13T00:04:35;101141.50;;;-6.09;86.61
71805;BME280;59654;52.216;5.616;2022-12-13T00:05:06;101141.50;;;-6.09;86.31
71805;BME280;59654;52.216;5.616;2022-12-13T00:05:44;101138.84;;;-6.11;85.72
71805;BME280;59654;52.216;5.616;2022-12-13T00:06:15;101146.63;;;-6.11;86.19
71805;BME280;59654;52.216;5.616;2022-12-13T00:06:46;101143.19;;;-6.10;86.11
71805;BME280;59654;52.216;5.616;2022-12-13T00:07:18;101144.91;;;-6.10;86.52
71805;BME280;59654;52.216;5.616;2022-12-13T00:07:49;101152.69;;;-6.10;86.35
71805;BME280;59654;52.216;5.616;2022-12-13T00:08:19;101143.97;;;-6.12;86.26
71805;BME280;59654;52.216;5.616;2022-12-13T00:08:50;101143.91;;;-6.14;85.97
71805;BME280;59654;52.216;5.616;2022-12-13T00:09:22;101140.44;;;-6.14;86.19
71805;BME280;59654;52.216;5.616;2022-12-13T00:09:52;101142.16;;;-6.15;86.62
71805;BME280;59654;52.216;5.616;2022-12-13T00:10:23;101149.94;;;-6.15;86.61
71805;BME280;59654;52.216;5.616;2022-12-13T00:11:01;101141.22;;;-6.17;86.04
71805;BME280;59654;52.216;5.616;2022-12-13T00:11:33;101136.91;;;-6.17;86.33
71805;BME280;59654;52.216;5.616;2022-12-13T00:12:04;101139.50;;;-6.17;86.41
71805;BME280;59654;52.216;5.616;2022-12-13T00:12:35;101140.38;;;-6.16;86.76
71805;BME280;59654;52.216;5.616;2022-12-13T00:13:06;101143.88;;;-6.15;86.90
71805;BME280;59654;52.216;5.616;2022-12-13T00:13:38;101138.72;;;-6.14;87.29
71805;BME280;59654;52.216;5.616;2022-12-13T00:14:10;101137.97;;;-6.11;86.37
71805;BME280;59654;52.216;5.616;2022-12-13T00:14:43;101142.31;;;-6.10;86.89
71805;BME280;59654;52.216;5.616;2022-12-13T00:15:14;101140.66;;;-6.08;86.71
71805;BME280;59654;52.216;5.616;2022-12-13T00:15:55;101136.31;;;-6.08;85.77
71805;BME280;59654;52.216;5.616;2022-12-13T00:16:27;101134.59;;;-6.09;86.40
71805;BME280;59654;52.216;5.616;2022-12-13T00:16:57;101139.78;;;-6.09;86.53
71805;BME280;59654;52.216;5.616;2022-12-13T00:17:30;101138.91;;;-6.09;86.48
71805;BME280;59654;52.216;5.616;2022-12-13T00:18:02;101143.25;;;-6.08;86.10
71805;BME280;59654;52.216;5.616;2022-12-13T00:18:33;101136.31;;;-6.08;86.19
71805;BME280;59654;52.216;5.616;2022-12-13T00:19:04;101133.72;;;-6.08;85.75
71805;BME280;59654;52.216;5.616;2022-12-13T00:19:35;101135.53;;;-6.05;86.62
71805;BME280;59654;52.216;5.616;2022-12-13T00:20:06;101139.03;;;-6.05;85.68
71805;BME280;59654;52.216;5.616;2022-12-13T00:20:39;101132.13;;;-6.04;86.07
71805;BME280;59654;52.216;5.616;2022-12-13T00:21:17;101136.47;;;-6.03;86.51
71805;BME280;59654;52.216;5.616;2022-12-13T00:21:49;101136.47;;;-6.03;86.39
71805;BME280;59654;52.216;5.616;2022-12-13T00:22:20;101136.44;;;-6.05;86.03
71805;BME280;59654;52.216;5.616;2022-12-13T00:22:51;101139.03;;;-6.05;85.82
71805;BME280;59654;52.216;5.616;2022-12-13T00:23:23;101134.66;;;-6.06;85.62
71805;BME280;59654;52.216;5.616;2022-12-13T00:23:55;101133.72;;;-6.08;84.63
71805;BME280;59654;52.216;5.616;2022-12-13T00:24:25;101138.91;;;-6.09;85.18
71805;BME280;59654;52.216;5.616;2022-12-13T00:24:56;101132.81;;;-6.10;84.69
71805;BME280;59654;52.216;5.616;2022-12-13T00:25:27;101135.41;;;-6.10;84.54
71805;BME280;59654;52.216;5.616;2022-12-13T00:26:07;101137.91;;;-6.13;85.00
71805;BME280;59654;52.216;5.616;2022-12-13T00:26:41;101132.72;;;-6.13;84.95
71805;BME280;59654;52.216;5.616;2022-12-13T00:27:12;101126.59;;;-6.15;85.04
71805;BME280;59654;52.216;5.616;2022-12-13T00:27:43;101130.91;;;-6.15;85.16
71805;BME280;59654;52.216;5.616;2022-12-13T00:28:15;101134.38;;;-6.15;84.44
71805;BME280;59654;52.216;5.616;2022-12-13T00:28:47;101135.19;;;-6.16;85.23
71805;BME280;59654;52.216;5.616;2022-12-13T00:29:20;101129.13;;;-6.17;84.54
71805;BME280;59654;52.216;5.616;2022-12-13T00:29:51;101127.38;;;-6.18;84.54
71805;BME280;59654;52.216;5.616;2022-12-13T00:30:22;101131.72;;;-6.17;84.97
71805;BME280;59654;52.216;5.616;2022-12-13T00:30:56;101129.13;;;-6.17;84.99
71805;BME280;59654;52.216;5.616;2022-12-13T00:31:28;101133.44;;;-6.17;85.53
71805;BME280;59654;52.216;5.616;2022-12-13T00:32:01;101132.59;;;-6.16;84.92
71805;BME280;59654;52.216;5.616;2022-12-13T00:32:32;101135.19;;;-6.16;84.51
71805;BME280;59654;52.216;5.616;2022-12-13T00:33:02;101130.00;;;-6.16;84.39
71805;BME280;59654;52.216;5.616;2022-12-13T00:33:33;101135.16;;;-6.18;84.97
71805;BME280;59654;52.216;5.616;2022-12-13T00:34:04;101137.75;;;-6.18;84.90
71805;BME280;59654;52.216;5.616;2022-12-13T00:34:35;101132.50;;;-6.19;85.58
71805;BME280;59654;52.216;5.616;2022-12-13T00:35:06;101138.50;;;-6.20;85.57
71805;BME280;59654;52.216;5.616;2022-12-13T00:35:41;101132.44;;;-6.21;85.58
71805;BME280;59654;52.216;5.616;2022-12-13T00:36:12;101132.44;;;-6.21;85.28
71805;BME280;59654;52.216;5.616;2022-12-13T00:36:43;101128.91;;;-6.23;85.46
71805;BME280;59654;52.216;5.616;2022-12-13T00:37:14;101133.22;;;-6.23;84.89
71805;BME280;59654;52.216;5.616;2022-12-13T00:37:45;101131.44;;;-6.24;84.88
71805;BME280;59654;52.216;5.616;2022-12-13T00:38:15;101132.31;;;-6.24;84.72
71805;BME280;59654;52.216;5.616;2022-12-13T00:38:46;101130.59;;;-6.25;84.98
71805;BME280;59654;52.216;5.616;2022-12-13T00:39:29;101130.59;;;-6.25;85.15
71805;BME280;59654;52.216;5.616;2022-12-13T00:40:00;101129.72;;;-6.25;85.59
71805;BME280;59654;52.216;5.616;2022-12-13T00:40:31;101125.41;;;-6.25;84.99
71805;BME280;59654;52.216;5.616;2022-12-13T00:41:15;101128.81;;;-6.26;84.75
71805;BME280;59654;52.216;5.616;2022-12-13T00:41:47;101126.19;;;-6.27;84.64
71805;BME280;59654;52.216;5.616;2022-12-13T00:42:18;101133.91;;;-6.29;85.25
71805;BME280;59654;52.216;5.616;2022-12-13T00:42:49;101128.66;;;-6.30;84.85
71805;BME280;59654;52.216;5.616;2022-12-13T00:43:20;101124.31;;;-6.31;85.30
71805;BME280;59654;52.216;5.616;2022-12-13T00:43:51;101127.72;;;-6.32;85.00
71805;BME280;59654;52.216;5.616;2022-12-13T00:44:23;101125.13;;;-6.32;84.29
71805;BME280;59654;52.216;5.616;2022-12-13T00:44:53;101121.66;;;-6.33;84.94
71805;BME280;59654;52.216;5.616;2022-12-13T00:45:24;101125.97;;;-6.33;85.37
71805;BME280;59654;52.216;5.616;2022-12-13T00:45:55;101118.13;;;-6.35;84.66
71805;BME280;59654;52.216;5.616;2022-12-13T00:46:27;101124.19;;;-6.34;85.47
71805;BME280;59654;52.216;5.616;2022-12-13T00:46:58;101119.78;;;-6.37;85.74
71805;BME280;59654;52.216;5.616;2022-12-13T00:47:29;101120.59;;;-6.38;85.21
71805;BME280;59654;52.216;5.616;2022-12-13T00:48:00;101119.72;;;-6.38;85.73
71805;BME280;59654;52.216;5.616;2022-12-13T00:48:31;101118.78;;;-6.40;84.91
71805;BME280;59654;52.216;5.616;2022-12-13T00:49:02;101125.72;;;-6.41;85.61
71805;BME280;59654;52.216;5.616;2022-12-13T00:49:33;101116.09;;;-6.43;85.54
71805;BME280;59654;52.216;5.616;2022-12-13T00:50:05;101116.94;;;-6.44;85.81
71805;BME280;59654;52.216;5.616;2022-12-13T00:50:37;101121.25;;;-6.45;85.77
71805;BME280;59654;52.216;5.616;2022-12-13T00:51:10;101114.34;;;-6.44;85.96
71805;BME280;59654;52.216;5.616;2022-12-13T00:51:42;101121.25;;;-6.45;85.40
71805;BME280;59654;52.216;5.616;2022-12-13T00:52:13;101111.69;;;-6.46;85.67
71805;BME280;59654;52.216;5.616;2022-12-13T00:52:43;101116.94;;;-6.44;85.93
71805;BME280;59654;52.216;5.616;2022-12-13T00:53:14;101113.41;;;-6.46;84.82
71805;BME280;59654;52.216;5.616;2022-12-13T00:53:45;101117.72;;;-6.47;85.71
71805;BME280;59654;52.216;5.616;2022-12-13T00:54:16;101117.72;;;-6.47;85.47
71805;BME280;59654;52.216;5.616;2022-12-13T00:54:47;101118.59;;;-6.46;85.28
71805;BME280;59654;52.216;5.616;2022-12-13T00:55:18;101114.28;;;-6.46;84.97
71805;BME280;59654;52.216;5.616;2022-12-13T00:55:49;101116.00;;;-6.46;85.54
71805;BME280;59654;52.216;5.616;2022-12-13T00:56:22;101111.69;;;-6.46;85.90
71805;BME280;59654;52.216;5.616;2022-12-13T00:56:55;101107.38;;;-6.45;85.83
71805;BME280;59654;52.216;5.616;2022-12-13T00:57:26;101104.78;;;-6.45;85.29
71805;BME280;59654;52.216;5.616;2022-12-13T00:57:57;101110.03;;;-6.44;85.44
71805;BME280;59654;52.216;5.616;2022-12-13T00:58:27;101108.31;;;-6.43;85.54
71805;BME280;59654;52.216;5.616;2022-12-13T00:58:58;101106.63;;;-6.43;85.96
71805;BME280;59654;52.216;5.616;2022-12-13T00:59:29;101110.91;;;-6.43;85.55
71805;BME280;59654;52.216;5.616;2022-12-13T01:00:00;101103.97;;;-6.44;85.78
71805;BME280;59654;52.216;5.616;2022-12-13T01:00:31;101113.47;;;-6.45;86.08
71805;BME280;59654;52.216;5.616;2022-12-13T01:01:13;101104.84;;;-6.44;86.26
71805;BME280;59654;52.216;5.616;2022-12-13T01:01:45;101110.09;;;-6.42;85.90
71805;BME280;59654;52.216;5.616;2022-12-13T01:02:15;101105.72;;;-6.43;85.98
71805;BME280;59654;52.216;5.616;2022-12-13T01:02:46;101115.22;;;-6.44;86.03
71805;BME280;59654;52.216;5.616;2022-12-13T01:03:18;101104.03;;;-6.43;86.01
71805;BME280;59654;52.216;5.616;2022-12-13T01:03:57;101105.69;;;-6.45;86.08
71805;BME280;59654;52.216;5.616;2022-12-13T01:04:29;101103.03;;;-6.46;85.89
71805;BME280;59654;52.216;5.616;2022-12-13T01:05:00;101104.75;;;-6.47;85.37
71805;BME280;59654;52.216;5.616;2022-12-13T01:05:30;101108.97;;;-6.49;85.75
71805;BME280;59654;52.216;5.616;2022-12-13T01:06:16;101102.84;;;-6.51;85.39
71805;BME280;59654;52.216;5.616;2022-12-13T01:06:48;101102.81;;;-6.53;85.26
71805;BME280;59654;52.216;5.616;2022-12-13T01:07:20;101104.50;;;-6.53;86.13
71805;BME280;59654;52.216;5.616;2022-12-13T01:07:51;101107.06;;;-6.55;85.39
71805;BME280;59654;52.216;5.616;2022-12-13T01:08:22;101106.13;;;-6.57;85.14
71805;BME280;59654;52.216;5.616;2022-12-13T01:08:53;101100.03;;;-6.59;84.97
71805;BME280;59654;52.216;5.616;2022-12-13T01:09:25;101102.56;;;-6.60;85.65
71805;BME280;59654;52.216;5.616;2022-12-13T01:09:58;101099.91;;;-6.62;85.45
71805;BME280;59654;52.216;5.616;2022-12-13T01:10:28;101101.63;;;-6.62;85.41
71805;BME280;59654;52.216;5.616;2022-12-13T01:10:59;101104.25;;;-6.61;85.59
71805;BME280;59654;52.216;5.616;2022-12-13T01:11:30;101101.63;;;-6.62;85.72
71805;BME280;59654;52.216;5.616;2022-12-13T01:12:04;101104.22;;;-6.62;85.24
71805;BME280;59654;52.216;5.616;2022-12-13T01:12:36;101101.66;;;-6.61;85.01
71805;BME280;59654;52.216;5.616;2022-12-13T01:13:07;101111.16;;;-6.61;85.61
71805;BME280;59654;52.216;5.616;2022-12-13T01:13:39;101107.69;;;-6.62;85.34
71805;BME280;59654;52.216;5.616;2022-12-13T01:14:10;101106.03;;;-6.60;85.49
71805;BME280;59654;52.216;5.616;2022-12-13T01:14:41;101106.03;;;-6.60;85.15
71805;BME280;59654;52.216;5.616;2022-12-13T01:15:12;101105.19;;;-6.59;86.29
71805;BME280;59654;52.216;5.616;2022-12-13T01:15:45;101107.78;;;-6.59;85.96
71805;BME280;59654;52.216;5.616;2022-12-13T01:16:17;101107.00;;;-6.56;86.20
71805;BME280;59654;52.216;5.616;2022-12-13T01:16:48;101109.59;;;-6.56;85.21
71805;BME280;59654;52.216;5.616;2022-12-13T01:17:19;101108.69;;;-6.58;86.24
71805;BME280;59654;52.216;5.616;2022-12-13T01:17:49;101109.50;;;-6.59;86.27
71805;BME280;59654;52.216;5.616;2022-12-13T01:18:20;101110.38;;;-6.59;86.12
71805;BME280;59654;52.216;5.616;2022-12-13T01:18:51;101109.50;;;-6.59;85.86
71805;BME280;59654;52.216;5.616;2022-12-13T01:19:24;101116.47;;;-6.58;85.79
71805;BME280;59654;52.216;5.616;2022-12-13T01:19:56;101104.41;;;-6.56;85.96
71805;BME280;59654;52.216;5.616;2022-12-13T01:20:27;101107.94;;;-6.54;86.40
71805;BME280;59654;52.216;5.616;2022-12-13T01:21:00;101105.41;;;-6.53;86.29
71805;BME280;59654;52.216;5.616;2022-12-13T01:21:33;101108.88;;;-6.52;85.76
71805;BME280;59654;52.216;5.616;2022-12-13T01:22:05;101107.22;;;-6.50;86.26
71805;BME280;59654;52.216;5.616;2022-12-13T01:22:37;101103.81;;;-6.49;85.44
71805;BME280;59654;52.216;5.616;2022-12-13T01:23:07;101102.16;;;-6.47;85.51
71805;BME280;59654;52.216;5.616;2022-12-13T01:23:39;101104.75;;;-6.47;85.34
71805;BME280;59654;52.216;5.616;2022-12-13T01:24:11;101098.72;;;-6.46;85.54
71805;BME280;59654;52.216;5.616;2022-12-13T01:24:42;101098.78;;;-6.44;85.87
71805;BME280;59654;52.216;5.616;2022-12-13T01:25:13;101102.25;;;-6.44;85.29
71805;BME280;59654;52.216;5.616;2022-12-13T01:25:43;101107.50;;;-6.42;85.97
71805;BME280;59654;52.216;5.616;2022-12-13T01:26:17;101098.00;;;-6.42;85.72
71805;BME280;59654;52.216;5.616;2022-12-13T01:26:52;101103.13;;;-6.43;85.33
71805;BME280;59654;52.216;5.616;2022-12-13T01:27:23;101102.19;;;-6.45;85.60
71805;BME280;59654;52.216;5.616;2022-12-13T01:27:54;101102.19;;;-6.45;84.50
71805;BME280;59654;52.216;5.616;2022-12-13T01:28:25;101104.69;;;-6.48;85.08
71805;BME280;59654;52.216;5.616;2022-12-13T01:28:56;101105.50;;;-6.49;84.67
71805;BME280;59654;52.216;5.616;2022-12-13T01:29:27;101104.56;;;-6.52;84.78
71805;BME280;59654;52.216;5.616;2022-12-13T01:29:58;101104.56;;;-6.52;84.14
71805;BME280;59654;52.216;5.616;2022-12-13T01:30:28;101103.69;;;-6.52;84.03
71805;BME280;59654;52.216;5.616;2022-12-13T01:31:03;101107.09;;;-6.53;84.95
71805;BME280;59654;52.216;5.616;2022-12-13T01:31:35;101105.41;;;-6.53;84.07
71805;BME280;59654;52.216;5.616;2022-12-13T01:32:10;101109.75;;;-6.52;84.10
71805;BME280;59654;52.216;5.616;2022-12-13T01:32:41;101107.09;;;-6.53;83.95
71805;BME280;59654;52.216;5.616;2022-12-13T01:33:12;101109.66;;;-6.55;84.59
71805;BME280;59654;52.216;5.616;2022-12-13T01:33:43;101108.75;;;-6.55;83.60
71805;BME280;59654;52.216;5.616;2022-12-13T01:34:17;101103.50;;;-6.58;83.67
71805;BME280;59654;52.216;5.616;2022-12-13T01:34:49;101109.44;;;-6.61;84.32
71805;BME280;59654;52.216;5.616;2022-12-13T01:35:19;101104.25;;;-6.61;83.33
71805;BME280;59654;52.216;5.616;2022-12-13T01:35:51;101112.97;;;-6.59;84.40
71805;BME280;59654;52.216;5.616;2022-12-13T01:36:22;101108.69;;;-6.58;84.36
71805;BME280;59654;52.216;5.616;2022-12-13T01:36:54;101109.59;;;-6.56;84.00
71805;BME280;59654;52.216;5.616;2022-12-13T01:37:26;101111.22;;;-6.60;83.42
71805;BME280;59654;52.216;5.616;2022-12-13T01:37:56;101113.75;;;-6.61;83.47
71805;BME280;59654;52.216;5.616;2022-12-13T01:38:28;101110.28;;;-6.62;83.45
71805;BME280;59654;52.216;5.616;2022-12-13T01:38:59;101107.56;;;-6.65;83.14
71805;BME280;59654;52.216;5.616;2022-12-13T01:39:30;101108.44;;;-6.64;84.08
71805;BME280;59654;52.216;5.616;2022-12-13T01:40:05;101108.41;;;-6.66;83.32
71805;BME280;59654;52.216;5.616;2022-12-13T01:40:45;101098.84;;;-6.67;83.95
71805;BME280;59654;52.216;5.616;2022-12-13T01:41:19;101112.63;;;-6.68;83.01
71805;BME280;59654;52.216;5.616;2022-12-13T01:41:53;101105.69;;;-6.69;83.07
71805;BME280;59654;52.216;5.616;2022-12-13T01:42:32;101105.63;;;-6.70;83.56
71805;BME280;59654;52.216;5.616;2022-12-13T01:43:04;101102.97;;;-6.72;83.60
71805;BME280;59654;52.216;5.616;2022-12-13T01:45:27;101107.97;;;-6.78;84.33
71805;BME280;59654;52.216;5.616;2022-12-13T01:45:58;101102.72;;;-6.79;83.64
71805;BME280;59654;52.216;5.616;2022-12-13T01:46:34;101107.84;;;-6.81;84.19
71805;BME280;59654;52.216;5.616;2022-12-13T01:47:05;101100.84;;;-6.83;83.62
71805;BME280;59654;52.216;5.616;2022-12-13T01:47:42;101115.44;;;-6.85;84.28
71805;BME280;59654;52.216;5.616;2022-12-13T01:48:21;101106.72;;;-6.88;84.57
71805;BME280;59654;52.216;5.616;2022-12-13T01:49:45;101109.19;;;-6.92;84.57
71805;BME280;59654;52.216;5.616;2022-12-13T01:50:24;101103.06;;;-6.94;84.49
71805;BME280;59654;52.216;5.616;2022-12-13T01:51:02;101100.41;;;-6.96;85.35
71805;BME280;59654;52.216;5.616;2022-12-13T01:52:21;101101.94;;;-7.01;85.17
71805;BME280;59654;52.216;5.616;2022-12-13T01:52:55;101101.00;;;-7.03;85.14
71805;BME280;59654;52.216;5.616;2022-12-13T01:53:30;101100.06;;;-7.05;85.87
71805;BME280;59654;52.216;5.616;2022-12-13T01:54:05;101106.91;;;-7.07;85.53
71805;BME280;59654;52.216;5.616;2022-12-13T01:54:43;101100.84;;;-7.07;85.22
71805;BME280;59654;52.216;5.616;2022-12-13T01:55:19;101103.38;;;-7.09;85.84
71805;BME280;59654;52.216;5.616;2022-12-13T01:55:56;101104.16;;;-7.11;85.50
71805;BME280;59654;52.216;5.616;2022-12-13T01:56:40;101103.31;;;-7.10;86.28
71805;BME280;59654;52.216;5.616;2022-12-13T01:57:17;101103.31;;;-7.10;86.05
71805;BME280;59654;52.216;5.616;2022-12-13T01:57:51;101104.97;;;-7.12;86.30
71805;BME280;59654;52.216;5.616;2022-12-13T01:58:23;101104.91;;;-7.14;86.87
71805;BME280;59654;52.216;5.616;2022-12-13T01:58:55;101100.63;;;-7.13;86.68
71805;BME280;59654;52.216;5.616;2022-12-13T01:59:28;101104.97;;;-7.12;86.82
71805;BME280;59654;52.216;5.616;2022-12-13T01:59:59;101095.50;;;-7.12;86.79
71805;BME280;59654;52.216;5.616;2022-12-13T02:00:34;101098.13;;;-7.10;87.00
71805;BME280;59654;52.216;5.616;2022-12-13T02:01:05;101096.44;;;-7.10;87.01
71805;BME280;59654;52.216;5.616;2022-12-13T02:01:37;101101.69;;;-7.08;86.19
71805;BME280;59654;52.216;5.616;2022-12-13T02:02:13;101101.72;;;-7.07;86.88
71805;BME280;59654;52.216;5.616;2022-12-13T02:02:47;101087.97;;;-7.06;86.70
71805;BME280;59654;52.216;5.616;2022-12-13T02:03:21;101093.22;;;-7.03;86.72
71805;BME280;59654;52.216;5.616;2022-12-13T02:03:52;101099.28;;;-7.02;86.97
71805;BME280;59654;52.216;5.616;2022-12-13T02:04:30;101096.75;;;-7.01;86.30
71805;BME280;59654;52.216;5.616;2022-12-13T02:05:12;101096.75;;;-7.01;86.12
71805;BME280;59654;52.216;5.616;2022-12-13T02:06:42;101098.59;;;-6.98;86.05
71805;BME280;59654;52.216;5.616;2022-12-13T02:07:18;101097.69;;;-6.99;86.98
71805;BME280;59654;52.216;5.616;2022-12-13T02:07:52;101094.22;;;-6.99;86.11
71805;BME280;59654;52.216;5.616;2022-12-13T02:08:24;101099.41;;;-6.99;85.39
71805;BME280;59654;52.216;5.616;2022-12-13T02:08:55;101101.06;;;-7.01;86.03
71805;BME280;59654;52.216;5.616;2022-12-13T02:09:27;101092.34;;;-7.03;86.52
71805;BME280;59654;52.216;5.616;2022-12-13T02:09:59;101101.81;;;-7.04;85.40
71805;BME280;59654;52.216;5.616;2022-12-13T02:10:32;101098.41;;;-7.03;85.48
71805;BME280;59654;52.216;5.616;2022-12-13T02:11:04;101099.28;;;-7.02;86.06
71805;BME280;59654;52.216;5.616;2022-12-13T02:11:41;101097.63;;;-7.00;86.37
71805;BME280;59654;52.216;5.616;2022-12-13T02:12:13;101103.75;;;-6.98;86.21
71805;BME280;59654;52.216;5.616;2022-12-13T02:12:44;101099.41;;;-6.99;85.52
71805;BME280;59654;52.216;5.616;2022-12-13T02:13:15;101098.47;;;-7.01;85.17
71805;BME280;59654;52.216;5.616;2022-12-13T02:13:46;101104.47;;;-7.02;84.87
71805;BME280;59654;52.216;5.616;2022-12-13T02:14:16;101093.16;;;-7.04;85.39
71805;BME280;59654;52.216;5.616;2022-12-13T02:14:47;101101.75;;;-7.05;84.35
71805;BME280;59654;52.216;5.616;2022-12-13T02:15:20;101102.56;;;-7.08;85.43
71805;BME280;59654;52.216;5.616;2022-12-13T02:21:48;101099.84;;;-7.11;85.87
71805;BME280;59654;52.216;5.616;2022-12-13T02:25:31;101099.84;;;-7.11;85.06
71805;BME280;59654;52.216;5.616;2022-12-13T02:28:20;101096.25;;;-7.14;85.69
71805;BME280;59654;52.216;5.616;2022-12-13T02:30:43;101099.50;;;-7.20;85.49
71805;BME280;59654;52.216;5.616;2022-12-13T02:31:32;101102.06;;;-7.20;85.24
71805;BME280;59654;52.216;5.616;2022-12-13T02:32:31;101102.97;;;-7.19;84.96
71805;BME280;59654;52.216;5.616;2022-12-13T02:34:00;101102.97;;;-7.19;85.20
71805;BME280;59654;52.216;5.616;2022-12-13T02:35:04;101104.78;;;-7.17;85.78
71805;BME280;59654;52.216;5.616;2022-12-13T02:35:45;101100.50;;;-7.16;85.76
71805;BME280;59654;52.216;5.616;2022-12-13T02:36:32;101099.66;;;-7.15;85.85
71805;BME280;59654;52.216;5.616;2022-12-13T02:37:23;101099.78;;;-7.12;85.97
71805;BME280;59654;52.216;5.616;2022-12-13T02:39:37;101099.03;;;-7.10;85.98
71805;BME280;59654;52.216;5.616;2022-12-13T02:40:29;101096.44;;;-7.10;85.75
71805;BME280;59654;52.216;5.616;2022-12-13T02:41:16;101095.56;;;-7.10;85.44
71805;BME280;59654;52.216;5.616;2022-12-13T02:41:59;101093.78;;;-7.11;85.96
71805;BME280;59654;52.216;5.616;2022-12-13T02:42:45;101090.38;;;-7.10;85.84
71805;BME280;59654;52.216;5.616;2022-12-13T02:43:29;101098.91;;;-7.13;85.22
71805;BME280;59654;52.216;5.616;2022-12-13T02:44:56;101092.00;;;-7.12;86.26
71805;BME280;59654;52.216;5.616;2022-12-13T02:45:46;101092.00;;;-7.12;85.91
71805;BME280;59654;52.216;5.616;2022-12-13T02:46:21;101095.44;;;-7.13;85.65
71805;BME280;59654;52.216;5.616;2022-12-13T02:47:00;101099.78;;;-7.12;84.95
71805;BME280;59654;52.216;5.616;2022-12-13T02:47:56;101097.19;;;-7.12;85.58
71805;BME280;59654;52.216;5.616;2022-12-13T02:48:33;101092.91;;;-7.12;85.50
71805;BME280;59654;52.216;5.616;2022-12-13T02:49:08;101086.91;;;-7.11;85.66
71805;BME280;59654;52.216;5.616;2022-12-13T02:49:46;101085.13;;;-7.12;85.91
71805;BME280;59654;52.216;5.616;2022-12-13T02:50:21;101089.44;;;-7.12;84.62
71805;BME280;59654;52.216;5.616;2022-12-13T02:50:55;101094.59;;;-7.12;85.13
71805;BME280;59654;52.216;5.616;2022-12-13T02:51:30;101090.25;;;-7.13;84.21
71805;BME280;59654;52.216;5.616;2022-12-13T02:52:05;101091.91;;;-7.15;84.41
71805;BME280;59654;52.216;5.616;2022-12-13T02:52:39;101086.66;;;-7.17;84.72
71805;BME280;59654;52.216;5.616;2022-12-13T02:53:14;101087.47;;;-7.18;84.58
71805;BME280;59654;52.216;5.616;2022-12-13T02:53:45;101094.44;;;-7.17;85.38
71805;BME280;59654;52.216;5.616;2022-12-13T02:54:16;101089.25;;;-7.17;84.91
71805;BME280;59654;52.216;5.616;2022-12-13T02:54:47;101084.88;;;-7.18;85.69
71805;BME280;59654;52.216;5.616;2022-12-13T02:55:18;101090.91;;;-7.19;85.04
71805;BME280;59654;52.216;5.616;2022-12-13T02:55:49;101087.34;;;-7.21;85.32
71805;BME280;59654;52.216;5.616;2022-12-13T02:56:20;101089.06;;;-7.22;85.32
71805;BME280;59654;52.216;5.616;2022-12-13T02:56:56;101079.56;;;-7.22;84.86
71805;BME280;59654;52.216;5.616;2022-12-13T02:57:37;101081.28;;;-7.22;85.33
71805;BME280;59654;52.216;5.616;2022-12-13T02:58:14;101079.59;;;-7.21;84.87
71805;BME280;59654;52.216;5.616;2022-12-13T02:58:52;101089.13;;;-7.20;85.03
71805;BME280;59654;52.216;5.616;2022-12-13T02:59:33;101083.94;;;-7.20;85.40
71805;BME280;59654;52.216;5.616;2022-12-13T03:00:15;101089.19;;;-7.18;85.73
71805;BME280;59654;52.216;5.616;2022-12-13T03:07:50;101089.75;;;-7.27;85.12
71805;BME280;59654;52.216;5.616;2022-12-13T03:10:04;101089.94;;;-7.22;85.38
71805;BME280;59654;52.216;5.616;2022-12-13T03:11:52;101090.06;;;-7.18;85.70
71805;BME280;59654;52.216;5.616;2022-12-13T03:13:13;101083.19;;;-7.17;84.86
71805;BME280;59654;52.216;5.616;2022-12-13T03:14:10;101083.19;;;-7.17;85.28
71805;BME280;59654;52.216;5.616;2022-12-13T03:15:47;101083.06;;;-7.20;84.81
71805;BME280;59654;52.216;5.616;2022-12-13T03:16:43;101093.34;;;-7.24;84.96
71805;BME280;59654;52.216;5.616;2022-12-13T03:17:19;101087.34;;;-7.22;84.51
71805;BME280;59654;52.216;5.616;2022-12-13T03:18:05;101081.28;;;-7.22;84.77
71805;BME280;59654;52.216;5.616;2022-12-13T03:18:47;101077.78;;;-7.24;84.34
71805;BME280;59654;52.216;5.616;2022-12-13T03:19:19;101083.88;;;-7.23;84.83
71805;BME280;59654;52.216;5.616;2022-12-13T03:19:51;101076.91;;;-7.24;84.50
71805;BME280;59654;52.216;5.616;2022-12-13T03:20:26;101079.56;;;-7.22;84.51
71805;BME280;59654;52.216;5.616;2022-12-13T03:21:03;101087.34;;;-7.21;85.34
71805;BME280;59654;52.216;5.616;2022-12-13T03:21:40;101078.69;;;-7.23;85.02
71805;BME280;59654;52.216;5.616;2022-12-13T03:22:13;101082.19;;;-7.21;84.22
71805;BME280;59654;52.216;5.616;2022-12-13T03:22:44;101078.69;;;-7.23;85.09
71805;BME280;59654;52.216;5.616;2022-12-13T03:23:16;101076.09;;;-7.23;84.38
71805;BME280;59654;52.216;5.616;2022-12-13T03:23:49;101077.78;;;-7.24;84.67
71805;BME280;59654;52.216;5.616;2022-12-13T03:24:20;101078.69;;;-7.23;84.75
71805;BME280;59654;52.216;5.616;2022-12-13T03:24:51;101078.69;;;-7.23;85.21
71805;BME280;59654;52.216;5.616;2022-12-13T03:25:26;101073.53;;;-7.22;85.24
71805;BME280;59654;52.216;5.616;2022-12-13T03:26:06;101089.06;;;-7.22;85.29
71805;BME280;59654;52.216;5.616;2022-12-13T03:26:40;101079.56;;;-7.22;85.07
71805;BME280;59654;52.216;5.616;2022-12-13T03:27:11;101075.16;;;-7.25;85.04
71805;BME280;59654;52.216;5.616;2022-12-13T03:27:43;101072.63;;;-7.24;85.13
71805;BME280;59654;52.216;5.616;2022-12-13T03:28:14;101073.50;;;-7.23;84.86
71805;BME280;59654;52.216;5.616;2022-12-13T03:28:45;101081.28;;;-7.23;84.73
71805;BME280;59654;52.216;5.616;2022-12-13T03:29:17;101073.50;;;-7.23;85.26